createdAt,value
2019-03-23T00:00:45.811Z,74.39
2019-03-23T00:03:15.795Z,73.89
2019-03-23T00:05:45.773Z,74.02
2019-03-23T00:08:15.762Z,73.77
2019-03-23T00:10:45.764Z,74.12
2019-03-23T00:13:15.732Z,74.40
2019-03-23T00:15:45.746Z,74.86
2019-03-23T00:18:15.729Z,74.92
2019-03-23T00:20:45.752Z,74.78
2019-03-23T00:23:15.675Z,74.68
2019-03-23T00:25:45.640Z,74.76
2019-03-23T00:28:15.625Z,74.80
2019-03-23T00:30:45.577Z,74.73
2019-03-23T00:33:15.568Z,74.61
2019-03-23T00:35:45.535Z,74.96
2019-03-23T00:38:15.534Z,75.20
2019-03-23T00:40:45.513Z,74.94
2019-03-23T00:43:15.473Z,75.23
2019-03-23T00:45:45.464Z,75.11
2019-03-23T00:48:15.446Z,75.19
2019-03-23T00:50:45.439Z,74.79
2019-03-23T00:53:15.400Z,73.88
2019-03-23T00:55:45.391Z,75.01
2019-03-23T00:58:15.360Z,74.98
2019-03-23T01:00:45.321Z,74.97
2019-03-23T01:03:15.298Z,74.81
2019-03-23T01:05:45.261Z,73.42
2019-03-23T01:08:15.265Z,72.74
2019-03-23T01:10:45.215Z,73.87
2019-03-23T01:13:15.195Z,73.96
2019-03-23T01:15:45.148Z,74.01
2019-03-23T01:18:15.119Z,73.87
2019-03-23T01:20:49.699Z,73.73
2019-03-23T01:23:15.062Z,73.91
2019-03-23T01:25:45.040Z,73.97
2019-03-23T01:28:15.022Z,74.15
2019-03-23T01:30:44.970Z,74.11
2019-03-23T01:33:15.914Z,74.06
2019-03-23T01:35:45.882Z,73.84
2019-03-23T01:38:15.857Z,74.24
2019-03-23T01:40:45.846Z,72.55
2019-03-23T01:43:15.802Z,73.21
2019-03-23T01:45:45.775Z,73.17
2019-03-23T01:48:15.768Z,73.20
2019-03-23T01:50:45.717Z,73.23
2019-03-23T01:53:15.681Z,73.08
2019-03-23T01:55:45.682Z,73.17
2019-03-23T01:58:15.659Z,73.27
2019-03-23T02:00:45.670Z,73.23
2019-03-23T02:03:15.603Z,73.01
2019-03-23T02:05:45.572Z,73.25
2019-03-23T02:08:15.571Z,73.43
2019-03-23T02:10:45.546Z,73.51
2019-03-23T02:13:15.530Z,73.21
2019-03-23T02:15:45.484Z,73.30
2019-03-23T02:18:15.448Z,73.40
2019-03-23T02:20:45.426Z,73.28
2019-03-23T02:23:15.384Z,71.73
2019-03-23T02:25:45.353Z,72.21
2019-03-23T02:28:15.307Z,72.72
2019-03-23T02:30:45.308Z,72.94
2019-03-23T02:33:15.281Z,72.78
2019-03-23T02:35:45.239Z,72.71
2019-03-23T02:38:15.186Z,72.26
2019-03-23T02:40:45.199Z,72.31
2019-03-23T02:43:15.173Z,71.90
2019-03-23T02:45:45.150Z,70.60
2019-03-23T02:48:15.110Z,71.45
2019-03-23T02:50:45.081Z,71.87
2019-03-23T02:53:15.033Z,71.72
2019-03-23T02:55:45.022Z,71.65
2019-03-23T02:58:14.963Z,71.46
2019-03-23T03:00:44.960Z,71.76
2019-03-23T03:03:14.916Z,71.73
2019-03-23T03:05:44.871Z,71.71
2019-03-23T03:08:14.880Z,71.93
2019-03-23T03:10:44.853Z,72.24
2019-03-23T03:13:14.826Z,72.43
2019-03-23T03:15:44.800Z,72.64
2019-03-23T03:18:14.786Z,72.67
2019-03-23T03:20:44.764Z,72.77
2019-03-23T03:23:14.727Z,73.45
2019-03-23T03:25:44.694Z,73.50
2019-03-23T03:28:14.644Z,73.76
2019-03-23T03:30:44.590Z,73.85
2019-03-23T03:33:14.579Z,73.99
2019-03-23T03:35:44.560Z,74.19
2019-03-23T03:38:14.531Z,74.45
2019-03-23T03:40:44.520Z,73.93
2019-03-23T03:43:14.482Z,74.84
2019-03-23T03:45:44.423Z,75.19
2019-03-23T03:48:14.394Z,75.44
2019-03-23T03:50:44.423Z,74.09
2019-03-23T03:53:14.334Z,75.15
2019-03-23T03:55:44.358Z,75.12
2019-03-23T03:58:14.248Z,75.20
2019-03-23T04:00:44.190Z,75.03
2019-03-23T04:03:14.151Z,75.14
2019-03-23T04:05:44.128Z,74.81
2019-03-23T04:08:14.101Z,75.29
2019-03-23T04:10:44.088Z,75.73
2019-03-23T04:13:14.032Z,75.17
2019-03-23T04:15:43.990Z,73.98
2019-03-23T04:18:13.950Z,75.44
2019-03-23T04:20:43.935Z,75.88
2019-03-23T04:23:13.901Z,76.20
2019-03-23T04:25:43.908Z,74.54
2019-03-23T04:28:13.848Z,74.01
2019-03-23T04:30:43.810Z,72.86
2019-03-23T04:33:13.786Z,73.93
2019-03-23T04:35:43.754Z,73.94
2019-03-23T04:38:22.238Z,74.24
2019-03-23T04:40:43.722Z,74.04
2019-03-23T04:43:13.703Z,73.80
2019-03-23T04:45:43.665Z,73.67
2019-03-23T04:48:13.646Z,73.91
2019-03-23T04:50:43.605Z,73.87
2019-03-23T04:53:13.598Z,74.13
2019-03-23T04:55:43.565Z,74.09
2019-03-23T04:58:13.629Z,73.72
2019-03-23T05:00:43.597Z,74.00
2019-03-23T05:03:13.567Z,74.12
2019-03-23T05:05:43.527Z,71.89
2019-03-23T05:08:13.493Z,73.29
2019-03-23T05:10:43.474Z,72.30
2019-03-23T05:13:13.444Z,73.07
2019-03-23T05:15:43.407Z,73.54
2019-03-23T05:18:13.371Z,73.19
2019-03-23T05:20:43.329Z,72.03
2019-03-23T05:23:13.302Z,73.31
2019-03-23T05:25:43.312Z,72.68
2019-03-23T05:28:13.339Z,73.60
2019-03-23T05:30:43.338Z,73.93
2019-03-23T05:33:13.309Z,73.85
2019-03-23T05:35:43.291Z,73.97
2019-03-23T05:38:13.255Z,74.54
2019-03-23T05:40:43.222Z,74.08
2019-03-23T05:43:13.232Z,73.93
2019-03-23T05:45:43.204Z,73.88
2019-03-23T05:48:13.158Z,73.95
2019-03-23T05:50:43.134Z,73.96
2019-03-23T05:53:13.092Z,74.49
2019-03-23T05:55:43.067Z,74.56
2019-03-23T05:58:13.043Z,74.63
2019-03-23T06:00:43.006Z,74.83
2019-03-23T06:03:12.982Z,74.74
2019-03-23T06:05:42.931Z,75.03
2019-03-23T06:08:12.901Z,74.92
2019-03-23T06:10:42.854Z,74.86
2019-03-23T06:13:12.827Z,75.26
2019-03-23T06:15:42.795Z,73.95
2019-03-23T06:18:12.800Z,75.20
2019-03-23T06:20:42.766Z,75.38
2019-03-23T06:23:12.745Z,75.44
2019-03-23T06:25:42.726Z,75.50
2019-03-23T06:28:12.695Z,75.70
2019-03-23T06:30:42.670Z,75.62
2019-03-23T06:33:12.659Z,75.66
2019-03-23T06:35:42.659Z,75.51
2019-03-23T06:38:12.632Z,75.21
2019-03-23T06:40:42.624Z,75.55
2019-03-23T06:43:12.602Z,74.50
2019-03-23T06:45:42.569Z,75.38
2019-03-23T06:48:12.533Z,75.35
2019-03-23T06:50:42.537Z,75.51
2019-03-23T06:53:12.480Z,75.33
2019-03-23T06:55:42.442Z,75.56
2019-03-23T06:58:12.409Z,75.67
2019-03-23T07:00:42.380Z,75.55
2019-03-23T07:03:12.370Z,75.52
2019-03-23T07:05:42.334Z,75.68
2019-03-23T07:08:12.316Z,75.44
2019-03-23T07:10:42.290Z,75.30
2019-03-23T07:13:12.276Z,75.35
2019-03-23T07:15:42.224Z,75.51
2019-03-23T07:18:12.182Z,74.02
2019-03-23T07:20:42.157Z,74.96
2019-03-23T07:23:12.124Z,74.85
2019-03-23T07:25:42.105Z,74.83
2019-03-23T07:28:12.069Z,74.52
2019-03-23T07:30:42.050Z,74.83
2019-03-23T07:33:12.019Z,74.82
2019-03-23T07:35:41.997Z,74.93
2019-03-23T07:38:11.944Z,74.82
2019-03-23T07:40:41.939Z,74.88
2019-03-23T07:43:11.950Z,75.12
2019-03-23T07:45:41.932Z,73.34
2019-03-23T07:48:11.929Z,74.50
2019-03-23T07:50:41.863Z,74.40
2019-03-23T07:53:11.853Z,74.77
2019-03-23T07:55:41.805Z,74.53
2019-03-23T07:58:11.963Z,74.91
2019-03-23T08:00:41.839Z,74.64
2019-03-23T08:03:11.799Z,74.23
2019-03-23T08:05:41.799Z,74.46
2019-03-23T08:08:11.752Z,74.33
2019-03-23T08:10:41.734Z,73.98
2019-03-23T08:13:11.761Z,74.18
2019-03-23T08:15:41.706Z,72.60
2019-03-23T08:18:11.685Z,73.52
2019-03-23T08:20:41.668Z,73.75
2019-03-23T08:23:11.639Z,74.04
2019-03-23T08:25:41.587Z,73.89
2019-03-23T08:28:11.564Z,72.59
2019-03-23T08:30:41.537Z,73.40
2019-03-23T08:33:11.526Z,73.43
2019-03-23T08:35:41.520Z,73.62
2019-03-23T08:38:11.501Z,73.16
2019-03-23T08:40:41.479Z,72.97
2019-03-23T08:43:11.451Z,72.82
2019-03-23T08:45:41.428Z,72.86
2019-03-23T08:48:11.392Z,71.56
2019-03-23T08:50:41.372Z,72.54
2019-03-23T08:53:11.363Z,72.40
2019-03-23T08:55:41.336Z,72.23
2019-03-23T08:58:11.314Z,72.25
2019-03-23T09:00:41.288Z,70.87
2019-03-23T09:03:11.265Z,71.72
2019-03-23T09:05:41.244Z,71.58
2019-03-23T09:08:11.317Z,71.33
2019-03-23T09:10:41.289Z,71.60
2019-03-23T09:13:11.302Z,71.81
2019-03-23T09:15:41.270Z,71.81
2019-03-23T09:18:11.278Z,71.49
2019-03-23T09:20:41.255Z,71.64
2019-03-23T09:23:11.312Z,71.71
2019-03-23T09:25:41.294Z,71.77
2019-03-23T09:28:11.253Z,71.30
2019-03-23T09:30:41.225Z,71.44
2019-03-23T09:33:11.181Z,71.64
2019-03-23T09:35:41.156Z,71.38
2019-03-23T09:38:11.176Z,71.09
2019-03-23T09:40:41.155Z,70.71
2019-03-23T09:43:11.312Z,70.48
2019-03-23T09:45:41.263Z,70.54
2019-03-23T09:48:11.313Z,70.49
2019-03-23T09:50:41.253Z,70.18
2019-03-23T09:53:11.249Z,70.02
2019-03-23T09:55:41.187Z,69.76
2019-03-23T09:58:11.175Z,69.97
2019-03-23T10:00:41.141Z,69.45
2019-03-23T10:03:11.137Z,69.53
2019-03-23T10:05:41.126Z,69.42
2019-03-23T10:08:11.081Z,69.52
2019-03-23T10:10:41.065Z,68.98
2019-03-23T10:13:11.017Z,68.52
2019-03-23T10:15:41.002Z,68.20
2019-03-23T10:18:11.043Z,68.22
2019-03-23T10:20:41.029Z,67.75
2019-03-23T10:23:11.178Z,67.21
2019-03-23T10:25:41.162Z,67.27
2019-03-23T10:28:11.124Z,67.49
2019-03-23T10:30:41.108Z,67.31
2019-03-23T10:33:11.088Z,67.07
2019-03-23T10:35:41.085Z,66.92
2019-03-23T10:38:11.271Z,65.76
2019-03-23T10:40:42.973Z,66.88
2019-03-23T10:43:11.301Z,66.97
2019-03-23T10:45:44.344Z,66.97
2019-03-23T10:48:12.245Z,66.52
2019-03-23T10:50:41.278Z,66.59
2019-03-23T10:53:11.242Z,66.78
2019-03-23T10:55:41.191Z,66.57
2019-03-23T10:58:11.250Z,66.19
2019-03-23T11:00:41.254Z,66.41
2019-03-23T11:03:11.229Z,66.20
2019-03-23T11:05:41.193Z,66.08
2019-03-23T11:08:11.164Z,65.70
2019-03-23T11:10:42.036Z,65.29
2019-03-23T11:13:11.149Z,65.10
2019-03-23T11:15:41.148Z,65.14
2019-03-23T11:18:11.119Z,64.86
2019-03-23T11:20:41.080Z,64.96
2019-03-23T11:23:11.057Z,64.40
2019-03-23T11:25:41.040Z,64.43
2019-03-23T11:28:11.103Z,64.52
2019-03-23T11:30:41.074Z,64.68
2019-03-23T11:33:11.037Z,64.59
2019-03-23T11:35:41.034Z,64.84
2019-03-23T11:38:11.250Z,64.18
2019-03-23T11:40:41.242Z,63.82
2019-03-23T11:43:11.427Z,64.07
2019-03-23T11:45:41.417Z,64.04
2019-03-23T11:48:11.445Z,63.82
2019-03-23T11:50:41.414Z,63.83
2019-03-23T11:53:11.405Z,63.92
2019-03-23T11:55:41.398Z,63.91
2019-03-23T11:58:11.382Z,63.96
2019-03-23T12:00:41.392Z,63.59
2019-03-23T12:03:11.359Z,63.44
2019-03-23T12:05:41.338Z,63.37
2019-03-23T12:08:11.331Z,63.73
2019-03-23T12:10:41.285Z,63.77
2019-03-23T12:13:11.293Z,63.08
2019-03-23T12:15:41.269Z,63.71
2019-03-23T12:18:11.255Z,63.36
2019-03-23T12:20:41.237Z,63.67
2019-03-23T12:23:11.216Z,63.04
2019-03-23T12:25:41.175Z,63.05
2019-03-23T12:28:11.228Z,63.67
2019-03-23T12:30:41.194Z,63.75
2019-03-23T12:33:11.186Z,63.43
2019-03-23T12:35:41.158Z,63.55
2019-03-23T12:38:11.226Z,63.05
2019-03-23T12:40:41.212Z,62.79
2019-03-23T12:43:11.196Z,62.77
2019-03-23T12:45:41.184Z,63.03
2019-03-23T12:48:11.179Z,63.29
2019-03-23T12:50:41.147Z,63.76
2019-03-23T12:53:11.117Z,63.90
2019-03-23T12:55:41.087Z,63.37
2019-03-23T12:58:11.163Z,63.31
2019-03-23T13:00:41.123Z,63.30
2019-03-23T13:03:11.209Z,62.49
2019-03-23T13:05:41.174Z,62.88
2019-03-23T13:08:11.155Z,62.46
2019-03-23T13:10:41.107Z,62.98
2019-03-23T13:13:11.074Z,63.55
2019-03-23T13:15:41.098Z,63.96
2019-03-23T13:18:11.067Z,64.15
2019-03-23T13:20:41.066Z,64.57
2019-03-23T13:23:12.694Z,64.47
2019-03-23T13:25:41.136Z,64.78
2019-03-23T13:28:11.166Z,65.33
2019-03-23T13:30:41.143Z,65.11
2019-03-23T13:33:11.136Z,64.00
2019-03-23T13:35:41.087Z,63.57
2019-03-23T13:38:11.168Z,64.20
2019-03-23T13:40:41.125Z,64.36
2019-03-23T13:43:11.116Z,64.64
2019-03-23T13:45:42.765Z,64.22
2019-03-23T13:48:11.134Z,64.64
2019-03-23T13:50:41.114Z,63.76
2019-03-23T13:53:11.083Z,64.66
2019-03-23T13:55:41.044Z,65.23
2019-03-23T13:58:12.291Z,64.60
2019-03-23T14:00:42.247Z,64.91
2019-03-23T14:03:12.217Z,65.12
2019-03-23T14:05:42.211Z,66.16
2019-03-23T14:08:12.189Z,67.05
2019-03-23T14:10:42.155Z,66.91
2019-03-23T14:13:12.159Z,67.46
2019-03-23T14:15:42.870Z,67.66
2019-03-23T14:18:13.338Z,67.15
2019-03-23T14:20:46.212Z,66.77
2019-03-23T14:23:16.526Z,65.32
2019-03-23T14:25:46.592Z,64.68
2019-03-23T14:28:17.532Z,63.17
2019-03-23T14:30:47.932Z,62.56
2019-03-23T14:33:21.287Z,62.19
2019-03-23T14:35:51.889Z,61.85
2019-03-23T14:38:21.965Z,61.05
2019-03-23T14:40:52.326Z,60.31
2019-03-23T14:43:27.442Z,59.81
2019-03-23T14:46:00.786Z,59.72
2019-03-23T14:48:31.034Z,59.09
2019-03-23T14:51:03.712Z,58.41
2019-03-23T14:53:35.049Z,58.24
2019-03-23T14:56:06.917Z,57.96
2019-03-23T14:58:37.254Z,57.78
2019-03-23T15:01:08.774Z,57.74
2019-03-23T15:03:39.145Z,56.93
2019-03-23T15:06:11.962Z,56.35
2019-03-23T15:08:45.039Z,55.73
2019-03-23T15:11:15.293Z,54.79
2019-03-23T15:13:51.022Z,54.27
2019-03-23T15:16:21.303Z,54.45
2019-03-23T15:18:51.697Z,54.72
2019-03-23T15:21:21.775Z,54.62
2019-03-23T15:23:54.879Z,54.79
2019-03-23T15:26:24.901Z,55.01
2019-03-23T15:28:55.202Z,55.24
2019-03-23T15:31:26.010Z,55.96
2019-03-23T15:33:56.222Z,56.59
2019-03-23T15:36:29.416Z,57.01
2019-03-23T15:38:59.576Z,57.72
2019-03-23T15:41:32.802Z,58.52
2019-03-23T15:44:05.064Z,58.55
2019-03-23T15:46:38.882Z,58.50
2019-03-23T15:49:09.395Z,59.75
2019-03-23T15:51:39.619Z,60.37
2019-03-23T15:54:09.925Z,60.16
2019-03-23T15:56:43.319Z,59.88
2019-03-23T15:59:13.444Z,59.84
2019-03-23T16:01:43.759Z,60.04
2019-03-23T16:04:18.611Z,60.28
2019-03-23T16:06:46.521Z,60.32
2019-03-23T16:09:21.926Z,60.44
2019-03-23T16:11:52.018Z,60.14
2019-03-23T16:14:25.538Z,60.46
2019-03-23T16:16:55.591Z,60.67
2019-03-23T16:19:26.069Z,61.03
2019-03-23T16:21:56.592Z,60.66
2019-03-23T16:24:26.776Z,60.38
2019-03-23T16:27:05.580Z,60.46
2019-03-23T16:29:36.155Z,60.38
2019-03-23T16:32:06.469Z,60.35
2019-03-23T16:34:38.565Z,59.86
2019-03-23T16:37:11.717Z,59.35
2019-03-23T16:39:43.921Z,59.17
2019-03-23T16:42:14.155Z,58.85
2019-03-23T16:44:46.735Z,58.82
2019-03-23T16:47:26.071Z,59.20
2019-03-23T16:50:01.635Z,59.01
2019-03-23T16:52:30.175Z,58.99
2019-03-23T16:55:11.454Z,58.73
2019-03-23T16:57:38.897Z,59.29
2019-03-23T17:00:12.026Z,59.67
2019-03-23T17:02:44.880Z,59.15
2019-03-23T17:05:23.769Z,58.66
2019-03-23T17:07:54.535Z,58.76
2019-03-23T17:10:27.310Z,59.01
2019-03-23T17:12:57.297Z,59.04
2019-03-23T17:15:27.991Z,59.12
2019-03-23T17:18:00.899Z,59.34
2019-03-23T17:20:32.033Z,59.64
2019-03-23T17:23:02.580Z,59.78
2019-03-23T17:25:32.594Z,60.28
2019-03-23T17:28:02.620Z,60.12
2019-03-23T17:30:32.586Z,60.32
2019-03-23T17:33:02.562Z,60.89
2019-03-23T17:35:32.506Z,61.31
2019-03-23T17:38:02.479Z,61.54
2019-03-23T17:40:32.425Z,61.76
2019-03-23T17:43:06.271Z,61.91
2019-03-23T17:45:32.378Z,62.16
2019-03-23T17:48:02.331Z,62.18
2019-03-23T17:50:32.339Z,62.70
2019-03-23T17:53:02.309Z,62.20
2019-03-23T17:55:32.304Z,62.13
2019-03-23T17:58:02.270Z,63.18
2019-03-23T18:00:32.245Z,63.43
2019-03-23T18:03:02.231Z,63.83
2019-03-23T18:05:32.185Z,64.31
2019-03-23T18:08:02.167Z,64.70
2019-03-23T18:10:32.121Z,64.95
2019-03-23T18:13:02.123Z,65.02
2019-03-23T18:15:32.080Z,65.29
2019-03-23T18:18:02.026Z,65.58
2019-03-23T18:20:32.005Z,65.78
2019-03-23T18:23:01.974Z,65.85
2019-03-23T18:25:31.933Z,66.07
2019-03-23T18:28:01.933Z,66.37
2019-03-23T18:30:48.821Z,66.46
2019-03-23T18:33:18.794Z,66.62
2019-03-23T18:35:48.789Z,66.54
2019-03-23T18:38:18.762Z,66.49
2019-03-23T18:40:48.696Z,66.55
2019-03-23T18:43:27.063Z,66.26
2019-03-23T18:45:48.647Z,66.27
2019-03-23T18:48:18.608Z,66.31
2019-03-23T18:50:48.558Z,66.21
2019-03-23T18:53:18.528Z,66.63
2019-03-23T18:55:48.475Z,66.23
2019-03-23T18:58:18.426Z,66.18
2019-03-23T19:00:48.391Z,64.57
2019-03-23T19:03:18.357Z,65.10
2019-03-23T19:05:48.303Z,65.55
2019-03-23T19:08:18.258Z,65.56
2019-03-23T19:10:48.214Z,66.05
2019-03-23T19:13:18.184Z,66.04
2019-03-23T19:15:48.127Z,65.93
2019-03-23T19:18:18.098Z,66.52
2019-03-23T19:20:48.070Z,66.01
2019-03-23T19:23:18.017Z,66.23
2019-03-23T19:25:47.992Z,66.23
2019-03-23T19:28:17.953Z,66.53
2019-03-23T19:30:47.910Z,66.42
2019-03-23T19:33:17.843Z,66.37
2019-03-23T19:35:47.832Z,66.15
2019-03-23T19:38:18.263Z,66.48
2019-03-23T19:40:47.772Z,65.30
2019-03-23T19:43:17.721Z,66.36
2019-03-23T19:45:47.689Z,65.13
2019-03-23T19:48:17.664Z,65.92
2019-03-23T19:50:47.619Z,65.85
2019-03-23T19:53:17.559Z,66.29
2019-03-23T19:55:47.502Z,66.42
2019-03-23T19:58:17.469Z,66.62
2019-03-23T20:00:47.459Z,66.38
2019-03-23T20:03:19.178Z,66.62
2019-03-23T20:05:47.438Z,66.69
2019-03-23T20:08:17.379Z,67.07
2019-03-23T20:10:47.330Z,67.06
2019-03-23T20:13:17.301Z,67.06
2019-03-23T20:15:47.268Z,67.16
2019-03-23T20:18:17.241Z,67.36
2019-03-23T20:20:47.185Z,67.54
2019-03-23T20:23:17.170Z,67.65
2019-03-23T20:25:47.122Z,67.67
2019-03-23T20:28:17.089Z,67.60
2019-03-23T20:30:47.082Z,67.46
2019-03-23T20:33:19.679Z,67.68
2019-03-23T20:35:47.039Z,67.94
2019-03-23T20:38:17.014Z,67.96
2019-03-23T20:40:46.996Z,67.91
2019-03-23T20:43:17.011Z,67.98
2019-03-23T20:45:46.963Z,68.30
2019-03-23T20:48:16.910Z,66.58
2019-03-23T20:50:46.896Z,67.41
2019-03-23T20:53:17.076Z,67.66
2019-03-23T20:55:47.037Z,67.79
2019-03-23T20:58:16.983Z,67.83
2019-03-23T21:00:46.938Z,66.39
2019-03-23T21:03:16.906Z,67.29
2019-03-23T21:05:46.918Z,66.04
2019-03-23T21:08:16.875Z,67.03
2019-03-23T21:10:46.852Z,66.69
2019-03-23T21:13:16.808Z,66.83
2019-03-23T21:15:46.739Z,65.70
2019-03-23T21:18:16.712Z,66.60
2019-03-23T21:20:46.666Z,66.99
2019-03-23T21:23:16.634Z,66.71
2019-03-23T21:25:46.605Z,67.04
2019-03-23T21:28:16.552Z,66.94
2019-03-23T21:30:46.516Z,67.12
2019-03-23T21:33:16.449Z,66.36
2019-03-23T21:35:46.422Z,67.44
2019-03-23T21:38:16.379Z,67.48
2019-03-23T21:40:46.342Z,67.63
2019-03-23T21:43:16.285Z,68.09
2019-03-23T21:45:46.276Z,68.06
2019-03-23T21:48:16.256Z,68.25
2019-03-23T21:50:47.689Z,68.23
2019-03-23T21:53:16.216Z,68.24
2019-03-23T21:55:46.180Z,68.23
2019-03-23T21:58:16.146Z,68.35
2019-03-23T22:00:46.097Z,68.41
2019-03-23T22:03:16.053Z,68.31
2019-03-23T22:05:46.025Z,68.72
2019-03-23T22:08:15.973Z,68.90
2019-03-23T22:10:45.933Z,68.94
2019-03-23T22:13:15.918Z,69.09
2019-03-23T22:15:45.895Z,68.98
2019-03-23T22:18:15.850Z,69.15
2019-03-23T22:20:45.818Z,69.18
2019-03-23T22:23:15.797Z,69.20
2019-03-23T22:25:45.760Z,69.57
2019-03-23T22:28:15.844Z,68.60
2019-03-23T22:30:45.792Z,69.49
2019-03-23T22:33:15.741Z,69.56
2019-03-23T22:35:45.702Z,69.73
2019-03-23T22:38:15.659Z,70.03
2019-03-23T22:40:45.628Z,70.22
2019-03-23T22:43:15.623Z,70.38
2019-03-23T22:45:45.582Z,70.55
2019-03-23T22:48:15.546Z,70.57
2019-03-23T22:50:45.497Z,70.98
2019-03-23T22:53:15.439Z,71.09
2019-03-23T22:55:45.409Z,71.00
2019-03-23T22:58:15.355Z,71.48
2019-03-23T23:00:46.260Z,71.55
2019-03-23T23:03:16.218Z,71.90
2019-03-23T23:05:46.179Z,72.12
2019-03-23T23:08:16.146Z,71.74
2019-03-23T23:10:46.104Z,71.47
2019-03-23T23:13:16.066Z,71.49
2019-03-23T23:15:46.041Z,71.53
2019-03-23T23:18:15.985Z,71.48
2019-03-23T23:20:45.968Z,71.12
2019-03-23T23:23:15.904Z,71.56
2019-03-23T23:25:45.861Z,71.77
2019-03-23T23:28:15.834Z,71.35
2019-03-23T23:30:45.792Z,72.13
2019-03-23T23:33:15.754Z,72.15
2019-03-23T23:35:45.725Z,72.36
2019-03-23T23:38:15.688Z,72.41
2019-03-23T23:40:45.635Z,72.50
2019-03-23T23:43:15.609Z,72.47
2019-03-23T23:45:45.590Z,72.47
2019-03-23T23:48:15.573Z,72.65
2019-03-23T23:50:45.518Z,72.64
2019-03-23T23:53:15.496Z,72.64
2019-03-23T23:55:45.444Z,72.54
2019-03-23T23:58:15.400Z,73.21
